sensor_id;sensor_type;location;lat;lon;timestamp;temperature;humidity
14473;DHT22;7322;50.872;4.386;2023-01-04T00:02:10;17.00;99.90
14473;DHT22;7322;50.872;4.386;2023-01-04T00:04:37;17.00;99.90
14473;DHT22;7322;50.872;4.386;2023-01-04T00:07:06;17.00;99.90
14473;DHT22;7322;50.872;4.386;2023-01-04T00:09:33;17.00;99.90
14473;DHT22;7322;50.872;4.386;2023-01-04T00:12:00;17.00;99.90
14473;DHT22;7322;50.872;4.386;2023-01-04T00:14:28;17.00;99.90
14473;DHT22;7322;50.872;4.386;2023-01-04T00:16:55;17.00;99.90
14473;DHT22;7322;50.872;4.386;2023-01-04T00:19:22;17.00;99.90
14473;DHT22;7322;50.872;4.386;2023-01-04T00:21:49;17.00;99.90
14473;DHT22;7322;50.872;4.386;2023-01-04T00:24:17;17.00;99.90
14473;DHT22;7322;50.872;4.386;2023-01-04T00:26:44;17.00;99.90
14473;DHT22;7322;50.872;4.386;2023-01-04T00:29:12;16.90;99.90
14473;DHT22;7322;50.872;4.386;2023-01-04T00:31:40;16.90;99.90
14473;DHT22;7322;50.872;4.386;2023-01-04T00:34:10;16.90;99.90
14473;DHT22;7322;50.872;4.386;2023-01-04T00:36:38;16.90;99.90
14473;DHT22;7322;50.872;4.386;2023-01-04T00:39:05;17.00;99.90
14473;DHT22;7322;50.872;4.386;2023-01-04T00:41:35;16.90;99.90
14473;DHT22;7322;50.872;4.386;2023-01-04T00:44:04;16.90;99.90
14473;DHT22;7322;50.872;4.386;2023-01-04T00:46:32;16.90;99.90
14473;DHT22;7322;50.872;4.386;2023-01-04T00:48:59;17.00;99.90
14473;DHT22;7322;50.872;4.386;2023-01-04T00:51:26;16.90;99.90
14473;DHT22;7322;50.872;4.386;2023-01-04T00:53:54;16.90;99.90
14473;DHT22;7322;50.872;4.386;2023-01-04T00:56:21;16.90;99.90
14473;DHT22;7322;50.872;4.386;2023-01-04T00:58:53;16.90;99.90
14473;DHT22;7322;50.872;4.386;2023-01-04T01:01:20;16.90;99.90
14473;DHT22;7322;50.872;4.386;2023-01-04T01:03:47;16.90;99.90
14473;DHT22;7322;50.872;4.386;2023-01-04T01:06:14;16.90;99.90
14473;DHT22;7322;50.872;4.386;2023-01-04T01:08:41;16.90;99.90
14473;DHT22;7322;50.872;4.386;2023-01-04T01:11:09;16.90;99.90
14473;DHT22;7322;50.872;4.386;2023-01-04T01:13:37;16.90;99.90
14473;DHT22;7322;50.872;4.386;2023-01-04T01:16:09;16.90;99.90
14473;DHT22;7322;50.872;4.386;2023-01-04T01:18:37;16.90;99.90
14473;DHT22;7322;50.872;4.386;2023-01-04T01:21:05;16.90;99.90
14473;DHT22;7322;50.872;4.386;2023-01-04T01:23:34;16.90;99.90
14473;DHT22;7322;50.872;4.386;2023-01-04T01:26:01;16.90;99.90
14473;DHT22;7322;50.872;4.386;2023-01-04T01:28:28;16.90;99.90
14473;DHT22;7322;50.872;4.386;2023-01-04T01:30:56;16.90;99.90
14473;DHT22;7322;50.872;4.386;2023-01-04T01:33:25;16.90;99.90
14473;DHT22;7322;50.872;4.386;2023-01-04T01:35:52;16.90;99.90
14473;DHT22;7322;50.872;4.386;2023-01-04T01:38:19;16.90;99.90
14473;DHT22;7322;50.872;4.386;2023-01-04T01:40:46;16.90;99.90
14473;DHT22;7322;50.872;4.386;2023-01-04T01:43:17;16.90;99.90
14473;DHT22;7322;50.872;4.386;2023-01-04T01:45:46;16.90;99.90
14473;DHT22;7322;50.872;4.386;2023-01-04T01:48:17;16.90;99.90
14473;DHT22;7322;50.872;4.386;2023-01-04T01:50:51;16.90;99.90
14473;DHT22;7322;50.872;4.386;2023-01-04T01:53:19;16.90;99.90
14473;DHT22;7322;50.872;4.386;2023-01-04T01:55:48;16.90;99.90
14473;DHT22;7322;50.872;4.386;2023-01-04T01:58:21;16.90;99.90
14473;DHT22;7322;50.872;4.386;2023-01-04T02:00:48;16.90;99.90
14473;DHT22;7322;50.872;4.386;2023-01-04T02:03:17;16.90;99.90
14473;DHT22;7322;50.872;4.386;2023-01-04T02:05:48;16.90;99.90
14473;DHT22;7322;50.872;4.386;2023-01-04T02:08:16;16.90;99.90
14473;DHT22;7322;50.872;4.386;2023-01-04T02:10:44;16.90;99.90
14473;DHT22;7322;50.872;4.386;2023-01-04T02:13:14;16.90;99.90
14473;DHT22;7322;50.872;4.386;2023-01-04T02:15:51;16.90;99.90
14473;DHT22;7322;50.872;4.386;2023-01-04T02:18:25;16.90;99.90
14473;DHT22;7322;50.872;4.386;2023-01-04T02:20:59;16.90;99.90
14473;DHT22;7322;50.872;4.386;2023-01-04T02:23:48;16.90;99.90
14473;DHT22;7322;50.872;4.386;2023-01-04T02:30:02;16.90;99.90
14473;DHT22;7322;50.872;4.386;2023-01-04T02:32:44;16.90;99.90
14473;DHT22;7322;50.872;4.386;2023-01-04T02:35:19;16.80;99.90
14473;DHT22;7322;50.872;4.386;2023-01-04T02:37:50;16.80;99.90
14473;DHT22;7322;50.872;4.386;2023-01-04T02:40:29;16.80;99.90
14473;DHT22;7322;50.872;4.386;2023-01-04T02:43:04;16.80;99.90
14473;DHT22;7322;50.872;4.386;2023-01-04T02:45:54;16.80;99.90
14473;DHT22;7322;50.872;4.386;2023-01-04T02:48:34;16.80;99.90
14473;DHT22;7322;50.872;4.386;2023-01-04T02:51:26;16.80;99.90
14473;DHT22;7322;50.872;4.386;2023-01-04T02:53:54;16.80;99.90
14473;DHT22;7322;50.872;4.386;2023-01-04T02:56:28;16.80;99.90
14473;DHT22;7322;50.872;4.386;2023-01-04T02:59:19;16.80;99.90
14473;DHT22;7322;50.872;4.386;2023-01-04T03:01:55;16.80;99.90
14473;DHT22;7322;50.872;4.386;2023-01-04T03:04:51;16.80;99.90
14473;DHT22;7322;50.872;4.386;2023-01-04T03:07:43;16.80;99.90
14473;DHT22;7322;50.872;4.386;2023-01-04T03:10:16;16.80;99.90
14473;DHT22;7322;50.872;4.386;2023-01-04T03:12:48;16.80;99.90
14473;DHT22;7322;50.872;4.386;2023-01-04T03:15:19;16.80;99.90
14473;DHT22;7322;50.872;4.386;2023-01-04T03:17:52;16.80;99.90
14473;DHT22;7322;50.872;4.386;2023-01-04T03:20:23;16.80;99.90
14473;DHT22;7322;50.872;4.386;2023-01-04T03:22:54;16.80;99.90
14473;DHT22;7322;50.872;4.386;2023-01-04T03:25:43;16.80;99.90
14473;DHT22;7322;50.872;4.386;2023-01-04T03:28:32;16.80;99.90
14473;DHT22;7322;50.872;4.386;2023-01-04T03:31:21;16.80;99.90
14473;DHT22;7322;50.872;4.386;2023-01-04T03:34:07;16.80;99.90
14473;DHT22;7322;50.872;4.386;2023-01-04T03:37:03;16.80;99.90
14473;DHT22;7322;50.872;4.386;2023-01-04T03:39:40;16.70;99.90
14473;DHT22;7322;50.872;4.386;2023-01-04T03:42:30;16.70;99.90
14473;DHT22;7322;50.872;4.386;2023-01-04T03:45:20;16.70;99.90
14473;DHT22;7322;50.872;4.386;2023-01-04T03:48:11;16.70;99.90
14473;DHT22;7322;50.872;4.386;2023-01-04T03:51:04;16.70;99.90
14473;DHT22;7322;50.872;4.386;2023-01-04T03:53:37;16.70;99.90
14473;DHT22;7322;50.872;4.386;2023-01-04T03:56:07;16.70;99.90
14473;DHT22;7322;50.872;4.386;2023-01-04T03:58:36;16.70;99.90
14473;DHT22;7322;50.872;4.386;2023-01-04T04:01:04;16.70;99.90
14473;DHT22;7322;50.872;4.386;2023-01-04T04:03:31;16.70;99.90
14473;DHT22;7322;50.872;4.386;2023-01-04T04:06:16;16.70;99.90
14473;DHT22;7322;50.872;4.386;2023-01-04T04:09:02;16.70;99.90
14473;DHT22;7322;50.872;4.386;2023-01-04T04:11:29;16.70;99.90
14473;DHT22;7322;50.872;4.386;2023-01-04T04:13:56;16.70;99.90
14473;DHT22;7322;50.872;4.386;2023-01-04T04:16:23;16.70;99.90
14473;DHT22;7322;50.872;4.386;2023-01-04T04:18:51;16.70;99.90
14473;DHT22;7322;50.872;4.386;2023-01-04T04:21:18;16.70;99.90
14473;DHT22;7322;50.872;4.386;2023-01-04T04:23:46;16.70;99.90
14473;DHT22;7322;50.872;4.386;2023-01-04T04:26:14;16.70;99.90
14473;DHT22;7322;50.872;4.386;2023-01-04T04:28:41;16.80;99.90
14473;DHT22;7322;50.872;4.386;2023-01-04T04:31:08;16.80;99.90
14473;DHT22;7322;50.872;4.386;2023-01-04T04:33:35;16.80;99.90
14473;DHT22;7322;50.872;4.386;2023-01-04T04:36:03;16.80;99.90
14473;DHT22;7322;50.872;4.386;2023-01-04T04:38:31;16.80;99.90
14473;DHT22;7322;50.872;4.386;2023-01-04T04:40:58;16.80;99.90
14473;DHT22;7322;50.872;4.386;2023-01-04T04:43:44;16.70;99.90
14473;DHT22;7322;50.872;4.386;2023-01-04T04:46:11;16.70;99.90
14473;DHT22;7322;50.872;4.386;2023-01-04T04:48:39;16.80;99.90
14473;DHT22;7322;50.872;4.386;2023-01-04T04:51:06;16.70;99.90
14473;DHT22;7322;50.872;4.386;2023-01-04T04:53:33;16.80;99.90
14473;DHT22;7322;50.872;4.386;2023-01-04T04:56:00;16.80;99.90
14473;DHT22;7322;50.872;4.386;2023-01-04T04:58:27;16.70;99.90
14473;DHT22;7322;50.872;4.386;2023-01-04T05:00:55;16.80;99.90
14473;DHT22;7322;50.872;4.386;2023-01-04T05:03:22;16.80;99.90
14473;DHT22;7322;50.872;4.386;2023-01-04T05:05:49;16.80;99.90
14473;DHT22;7322;50.872;4.386;2023-01-04T05:08:16;16.80;99.90
14473;DHT22;7322;50.872;4.386;2023-01-04T05:10:45;16.80;99.90
14473;DHT22;7322;50.872;4.386;2023-01-04T05:13:11;16.80;99.90
14473;DHT22;7322;50.872;4.386;2023-01-04T05:15:39;16.80;99.90
14473;DHT22;7322;50.872;4.386;2023-01-04T05:18:08;16.80;99.90
14473;DHT22;7322;50.872;4.386;2023-01-04T05:20:36;16.80;99.90
14473;DHT22;7322;50.872;4.386;2023-01-04T05:23:03;16.80;99.90
14473;DHT22;7322;50.872;4.386;2023-01-04T05:25:31;16.80;99.90
14473;DHT22;7322;50.872;4.386;2023-01-04T05:27:58;16.80;99.90
14473;DHT22;7322;50.872;4.386;2023-01-04T05:30:25;16.80;99.90
14473;DHT22;7322;50.872;4.386;2023-01-04T05:33:11;16.80;99.90
14473;DHT22;7322;50.872;4.386;2023-01-04T05:35:38;16.80;99.90
14473;DHT22;7322;50.872;4.386;2023-01-04T05:38:05;16.80;99.90
14473;DHT22;7322;50.872;4.386;2023-01-04T05:40:32;16.80;99.90
14473;DHT22;7322;50.872;4.386;2023-01-04T05:42:59;16.80;99.90
14473;DHT22;7322;50.872;4.386;2023-01-04T05:45:26;16.80;99.90
14473;DHT22;7322;50.872;4.386;2023-01-04T05:47:53;16.80;99.90
14473;DHT22;7322;50.872;4.386;2023-01-04T05:50:22;16.80;99.90
14473;DHT22;7322;50.872;4.386;2023-01-04T05:52:50;16.80;99.90
14473;DHT22;7322;50.872;4.386;2023-01-04T05:55:17;16.80;99.90
14473;DHT22;7322;50.872;4.386;2023-01-04T05:57:44;16.90;99.90
14473;DHT22;7322;50.872;4.386;2023-01-04T06:00:12;16.90;99.90
14473;DHT22;7322;50.872;4.386;2023-01-04T06:02:41;17.10;99.90
14473;DHT22;7322;50.872;4.386;2023-01-04T06:05:08;17.30;99.90
14473;DHT22;7322;50.872;4.386;2023-01-04T06:07:37;17.50;99.90
14473;DHT22;7322;50.872;4.386;2023-01-04T06:10:05;17.80;99.90
14473;DHT22;7322;50.872;4.386;2023-01-04T06:12:32;18.00;99.90
14473;DHT22;7322;50.872;4.386;2023-01-04T06:15:00;18.20;99.90
14473;DHT22;7322;50.872;4.386;2023-01-04T06:17:28;18.40;99.90
14473;DHT22;7322;50.872;4.386;2023-01-04T06:19:55;18.50;99.90
14473;DHT22;7322;50.872;4.386;2023-01-04T06:22:22;18.60;99.90
14473;DHT22;7322;50.872;4.386;2023-01-04T06:24:53;18.80;99.90
14473;DHT22;7322;50.872;4.386;2023-01-04T06:27:21;18.90;99.90
14473;DHT22;7322;50.872;4.386;2023-01-04T06:30:03;19.00;99.90
14473;DHT22;7322;50.872;4.386;2023-01-04T06:32:37;19.00;99.90
14473;DHT22;7322;50.872;4.386;2023-01-04T06:35:07;19.00;99.90
14473;DHT22;7322;50.872;4.386;2023-01-04T06:37:34;19.00;99.90
14473;DHT22;7322;50.872;4.386;2023-01-04T06:40:10;19.10;99.90
14473;DHT22;7322;50.872;4.386;2023-01-04T06:42:39;19.10;99.90
14473;DHT22;7322;50.872;4.386;2023-01-04T06:45:13;19.00;99.90
14473;DHT22;7322;50.872;4.386;2023-01-04T06:47:41;19.00;99.90
14473;DHT22;7322;50.872;4.386;2023-01-04T06:50:09;19.00;99.90
14473;DHT22;7322;50.872;4.386;2023-01-04T06:52:36;19.00;99.90
14473;DHT22;7322;50.872;4.386;2023-01-04T06:55:04;18.90;99.90
14473;DHT22;7322;50.872;4.386;2023-01-04T06:57:33;18.90;99.90
14473;DHT22;7322;50.872;4.386;2023-01-04T07:00:01;18.90;99.90
14473;DHT22;7322;50.872;4.386;2023-01-04T07:02:28;18.90;99.90
14473;DHT22;7322;50.872;4.386;2023-01-04T07:04:55;18.80;99.90
14473;DHT22;7322;50.872;4.386;2023-01-04T07:07:24;18.80;99.90
14473;DHT22;7322;50.872;4.386;2023-01-04T07:09:51;18.80;99.90
14473;DHT22;7322;50.872;4.386;2023-01-04T07:12:18;18.70;99.90
14473;DHT22;7322;50.872;4.386;2023-01-04T07:14:46;18.70;99.90
14473;DHT22;7322;50.872;4.386;2023-01-04T07:17:15;18.60;99.90
14473;DHT22;7322;50.872;4.386;2023-01-04T07:19:43;18.60;99.90
14473;DHT22;7322;50.872;4.386;2023-01-04T07:22:10;18.60;99.90
14473;DHT22;7322;50.872;4.386;2023-01-04T07:24:37;18.50;99.90
14473;DHT22;7322;50.872;4.386;2023-01-04T07:27:05;18.50;99.90
14473;DHT22;7322;50.872;4.386;2023-01-04T07:29:32;18.50;99.90
14473;DHT22;7322;50.872;4.386;2023-01-04T07:32:00;18.50;99.90
14473;DHT22;7322;50.872;4.386;2023-01-04T07:34:28;18.40;99.90
14473;DHT22;7322;50.872;4.386;2023-01-04T07:36:56;18.40;99.90
14473;DHT22;7322;50.872;4.386;2023-01-04T07:39:23;18.40;99.90
14473;DHT22;7322;50.872;4.386;2023-01-04T07:41:50;18.40;99.90
14473;DHT22;7322;50.872;4.386;2023-01-04T07:44:17;18.30;99.90
14473;DHT22;7322;50.872;4.386;2023-01-04T07:46:46;18.30;99.90
14473;DHT22;7322;50.872;4.386;2023-01-04T07:49:15;18.30;99.90
14473;DHT22;7322;50.872;4.386;2023-01-04T07:51:43;18.30;99.90
14473;DHT22;7322;50.872;4.386;2023-01-04T07:54:10;18.20;99.90
14473;DHT22;7322;50.872;4.386;2023-01-04T07:56:37;18.20;99.90
14473;DHT22;7322;50.872;4.386;2023-01-04T07:59:04;18.20;99.90
14473;DHT22;7322;50.872;4.386;2023-01-04T08:01:31;18.10;99.90
14473;DHT22;7322;50.872;4.386;2023-01-04T08:04:00;18.10;99.90
14473;DHT22;7322;50.872;4.386;2023-01-04T08:06:28;18.10;99.90
14473;DHT22;7322;50.872;4.386;2023-01-04T08:08:55;18.10;99.90
14473;DHT22;7322;50.872;4.386;2023-01-04T08:11:23;18.10;99.90
14473;DHT22;7322;50.872;4.386;2023-01-04T08:13:50;18.10;99.90
14473;DHT22;7322;50.872;4.386;2023-01-04T08:16:19;18.10;99.90
14473;DHT22;7322;50.872;4.386;2023-01-04T08:18:47;18.10;99.90
14473;DHT22;7322;50.872;4.386;2023-01-04T08:21:14;18.10;99.90
14473;DHT22;7322;50.872;4.386;2023-01-04T08:23:42;18.00;99.90
14473;DHT22;7322;50.872;4.386;2023-01-04T08:26:12;18.00;99.90
14473;DHT22;7322;50.872;4.386;2023-01-04T08:28:40;18.00;99.90
14473;DHT22;7322;50.872;4.386;2023-01-04T08:31:12;18.00;99.90
14473;DHT22;7322;50.872;4.386;2023-01-04T08:33:40;18.00;99.90
14473;DHT22;7322;50.872;4.386;2023-01-04T08:36:09;18.00;99.90
14473;DHT22;7322;50.872;4.386;2023-01-04T08:38:36;17.90;99.90
14473;DHT22;7322;50.872;4.386;2023-01-04T08:41:04;17.90;99.90
14473;DHT22;7322;50.872;4.386;2023-01-04T08:43:31;17.90;99.90
14473;DHT22;7322;50.872;4.386;2023-01-04T08:46:00;17.90;99.90
14473;DHT22;7322;50.872;4.386;2023-01-04T08:48:27;17.90;99.90
14473;DHT22;7322;50.872;4.386;2023-01-04T08:50:56;17.90;99.90
14473;DHT22;7322;50.872;4.386;2023-01-04T08:53:23;17.90;99.90
14473;DHT22;7322;50.872;4.386;2023-01-04T08:55:51;17.90;99.90
14473;DHT22;7322;50.872;4.386;2023-01-04T08:58:20;17.80;99.90
14473;DHT22;7322;50.872;4.386;2023-01-04T09:00:47;17.80;99.90
14473;DHT22;7322;50.872;4.386;2023-01-04T09:03:15;17.80;99.90
14473;DHT22;7322;50.872;4.386;2023-01-04T09:05:42;17.80;99.90
14473;DHT22;7322;50.872;4.386;2023-01-04T09:08:09;17.80;99.90
14473;DHT22;7322;50.872;4.386;2023-01-04T09:10:37;17.80;99.90
14473;DHT22;7322;50.872;4.386;2023-01-04T09:13:05;17.80;99.90
14473;DHT22;7322;50.872;4.386;2023-01-04T09:15:34;17.80;99.90
14473;DHT22;7322;50.872;4.386;2023-01-04T09:18:01;17.80;99.90
14473;DHT22;7322;50.872;4.386;2023-01-04T09:20:29;17.80;99.90
14473;DHT22;7322;50.872;4.386;2023-01-04T09:22:56;17.80;99.90
14473;DHT22;7322;50.872;4.386;2023-01-04T09:25:23;17.80;99.90
14473;DHT22;7322;50.872;4.386;2023-01-04T09:27:50;17.80;99.90
14473;DHT22;7322;50.872;4.386;2023-01-04T09:30:17;17.80;99.90
14473;DHT22;7322;50.872;4.386;2023-01-04T09:32:46;17.90;99.90
14473;DHT22;7322;50.872;4.386;2023-01-04T09:35:13;17.90;99.90
14473;DHT22;7322;50.872;4.386;2023-01-04T09:37:40;17.90;99.90
14473;DHT22;7322;50.872;4.386;2023-01-04T09:40:11;17.90;99.90
14473;DHT22;7322;50.872;4.386;2023-01-04T09:42:43;17.90;99.90
14473;DHT22;7322;50.872;4.386;2023-01-04T09:45:16;17.90;99.90
14473;DHT22;7322;50.872;4.386;2023-01-04T09:47:50;17.90;99.90
14473;DHT22;7322;50.872;4.386;2023-01-04T09:50:21;17.90;99.90
14473;DHT22;7322;50.872;4.386;2023-01-04T09:52:56;17.80;99.90
14473;DHT22;7322;50.872;4.386;2023-01-04T09:55:31;17.80;99.90
14473;DHT22;7322;50.872;4.386;2023-01-04T09:58:03;17.80;99.90
14473;DHT22;7322;50.872;4.386;2023-01-04T10:00:34;17.80;99.90
14473;DHT22;7322;50.872;4.386;2023-01-04T10:03:09;17.80;99.90
14473;DHT22;7322;50.872;4.386;2023-01-04T10:05:39;17.80;99.90
14473;DHT22;7322;50.872;4.386;2023-01-04T10:08:13;17.80;99.90
14473;DHT22;7322;50.872;4.386;2023-01-04T10:10:47;17.90;99.90
14473;DHT22;7322;50.872;4.386;2023-01-04T10:13:29;17.80;99.90
14473;DHT22;7322;50.872;4.386;2023-01-04T10:16:05;17.80;99.90
14473;DHT22;7322;50.872;4.386;2023-01-04T10:18:46;17.90;99.90
14473;DHT22;7322;50.872;4.386;2023-01-04T10:21:25;17.90;99.90
14473;DHT22;7322;50.872;4.386;2023-01-04T10:24:05;17.90;99.90
14473;DHT22;7322;50.872;4.386;2023-01-04T10:26:40;17.80;99.90
14473;DHT22;7322;50.872;4.386;2023-01-04T10:29:24;17.80;99.90
14473;DHT22;7322;50.872;4.386;2023-01-04T10:31:59;17.80;99.90
14473;DHT22;7322;50.872;4.386;2023-01-04T10:34:30;17.80;99.90
14473;DHT22;7322;50.872;4.386;2023-01-04T10:37:03;17.80;99.90
14473;DHT22;7322;50.872;4.386;2023-01-04T10:39:33;17.80;99.90
14473;DHT22;7322;50.872;4.386;2023-01-04T10:42:11;17.80;99.90
14473;DHT22;7322;50.872;4.386;2023-01-04T10:44:50;17.80;99.90
14473;DHT22;7322;50.872;4.386;2023-01-04T10:47:27;17.80;99.90
14473;DHT22;7322;50.872;4.386;2023-01-04T10:49:58;17.80;99.90
14473;DHT22;7322;50.872;4.386;2023-01-04T10:52:30;17.80;99.90
14473;DHT22;7322;50.872;4.386;2023-01-04T10:55:00;17.80;99.90
14473;DHT22;7322;50.872;4.386;2023-01-04T10:57:32;17.90;99.90
14473;DHT22;7322;50.872;4.386;2023-01-04T11:00:05;17.90;99.90
14473;DHT22;7322;50.872;4.386;2023-01-04T11:02:36;17.90;99.90
14473;DHT22;7322;50.872;4.386;2023-01-04T11:05:13;17.90;99.90
14473;DHT22;7322;50.872;4.386;2023-01-04T11:07:48;17.90;99.90
14473;DHT22;7322;50.872;4.386;2023-01-04T11:10:20;17.80;99.90
14473;DHT22;7322;50.872;4.386;2023-01-04T11:12:51;17.90;99.90
14473;DHT22;7322;50.872;4.386;2023-01-04T11:15:27;17.80;99.90
14473;DHT22;7322;50.872;4.386;2023-01-04T11:18:02;17.90;99.90
14473;DHT22;7322;50.872;4.386;2023-01-04T11:20:31;17.80;99.90
14473;DHT22;7322;50.872;4.386;2023-01-04T11:23:00;17.80;99.90
14473;DHT22;7322;50.872;4.386;2023-01-04T11:25:36;17.80;99.90
14473;DHT22;7322;50.872;4.386;2023-01-04T11:28:10;17.80;99.90
14473;DHT22;7322;50.872;4.386;2023-01-04T11:30:46;17.80;99.90
14473;DHT22;7322;50.872;4.386;2023-01-04T11:33:16;17.80;99.90
14473;DHT22;7322;50.872;4.386;2023-01-04T11:35:47;17.90;99.90
14473;DHT22;7322;50.872;4.386;2023-01-04T11:38:17;17.90;99.90
14473;DHT22;7322;50.872;4.386;2023-01-04T11:40:56;17.90;99.90
14473;DHT22;7322;50.872;4.386;2023-01-04T11:43:26;17.90;99.90
14473;DHT22;7322;50.872;4.386;2023-01-04T11:45:55;17.90;99.90
14473;DHT22;7322;50.872;4.386;2023-01-04T11:48:38;17.90;99.90
14473;DHT22;7322;50.872;4.386;2023-01-04T11:51:16;17.90;99.90
14473;DHT22;7322;50.872;4.386;2023-01-04T11:53:44;17.90;99.90
14473;DHT22;7322;50.872;4.386;2023-01-04T11:56:20;17.80;99.90
14473;DHT22;7322;50.872;4.386;2023-01-04T11:59:11;17.80;99.90
14473;DHT22;7322;50.872;4.386;2023-01-04T12:01:40;17.80;99.90
14473;DHT22;7322;50.872;4.386;2023-01-04T12:04:12;17.80;99.90
14473;DHT22;7322;50.872;4.386;2023-01-04T12:06:45;17.80;99.90
14473;DHT22;7322;50.872;4.386;2023-01-04T12:09:15;17.80;99.90
14473;DHT22;7322;50.872;4.386;2023-01-04T12:11:45;17.80;99.90
14473;DHT22;7322;50.872;4.386;2023-01-04T12:14:19;17.80;99.90
14473;DHT22;7322;50.872;4.386;2023-01-04T12:16:50;17.80;99.90
14473;DHT22;7322;50.872;4.386;2023-01-04T12:19:19;17.90;99.90
14473;DHT22;7322;50.872;4.386;2023-01-04T12:21:50;17.80;99.90
14473;DHT22;7322;50.872;4.386;2023-01-04T12:24:19;17.80;99.90
14473;DHT22;7322;50.872;4.386;2023-01-04T12:26:47;17.80;99.90
14473;DHT22;7322;50.872;4.386;2023-01-04T12:29:47;17.80;99.90
14473;DHT22;7322;50.872;4.386;2023-01-04T12:32:43;17.90;99.90
14473;DHT22;7322;50.872;4.386;2023-01-04T12:38:57;17.90;99.90
14473;DHT22;7322;50.872;4.386;2023-01-04T12:45:14;17.80;99.90
14473;DHT22;7322;50.872;4.386;2023-01-04T12:47:43;17.80;99.90
14473;DHT22;7322;50.872;4.386;2023-01-04T12:50:29;17.80;99.90
14473;DHT22;7322;50.872;4.386;2023-01-04T12:53:02;17.80;99.90
14473;DHT22;7322;50.872;4.386;2023-01-04T12:55:58;17.80;99.90
14473;DHT22;7322;50.872;4.386;2023-01-04T12:58:40;17.80;99.90
14473;DHT22;7322;50.872;4.386;2023-01-04T13:01:19;17.80;99.90
14473;DHT22;7322;50.872;4.386;2023-01-04T13:03:48;17.80;99.90
14473;DHT22;7322;50.872;4.386;2023-01-04T13:06:20;17.80;99.90
14473;DHT22;7322;50.872;4.386;2023-01-04T13:08:48;17.80;99.90
14473;DHT22;7322;50.872;4.386;2023-01-04T13:11:32;17.80;99.90
14473;DHT22;7322;50.872;4.386;2023-01-04T13:14:06;17.80;99.90
14473;DHT22;7322;50.872;4.386;2023-01-04T13:16:41;17.80;99.90
14473;DHT22;7322;50.872;4.386;2023-01-04T13:19:14;17.80;99.90
14473;DHT22;7322;50.872;4.386;2023-01-04T13:21:44;17.70;99.90
14473;DHT22;7322;50.872;4.386;2023-01-04T13:24:20;17.70;99.90
14473;DHT22;7322;50.872;4.386;2023-01-04T13:26:49;17.70;99.90
14473;DHT22;7322;50.872;4.386;2023-01-04T13:29:20;17.70;99.90
14473;DHT22;7322;50.872;4.386;2023-01-04T13:31:51;17.80;99.90
14473;DHT22;7322;50.872;4.386;2023-01-04T13:34:21;17.70;99.90
14473;DHT22;7322;50.872;4.386;2023-01-04T13:37:06;17.80;99.90
14473;DHT22;7322;50.872;4.386;2023-01-04T13:39:35;17.80;99.90
14473;DHT22;7322;50.872;4.386;2023-01-04T13:42:04;17.80;99.90
14473;DHT22;7322;50.872;4.386;2023-01-04T13:47:33;17.80;99.90
14473;DHT22;7322;50.872;4.386;2023-01-04T13:50:01;17.70;99.90
14473;DHT22;7322;50.872;4.386;2023-01-04T13:52:28;17.80;99.90
14473;DHT22;7322;50.872;4.386;2023-01-04T13:55:09;17.80;99.90
14473;DHT22;7322;50.872;4.386;2023-01-04T13:57:38;17.80;99.90
14473;DHT22;7322;50.872;4.386;2023-01-04T14:00:06;17.70;99.90
14473;DHT22;7322;50.872;4.386;2023-01-04T14:02:34;17.70;99.90
14473;DHT22;7322;50.872;4.386;2023-01-04T14:05:01;17.70;99.90
14473;DHT22;7322;50.872;4.386;2023-01-04T14:07:28;17.70;99.90
14473;DHT22;7322;50.872;4.386;2023-01-04T14:09:56;17.70;99.90
14473;DHT22;7322;50.872;4.386;2023-01-04T14:12:26;17.70;99.90
14473;DHT22;7322;50.872;4.386;2023-01-04T14:14:56;17.70;99.90
14473;DHT22;7322;50.872;4.386;2023-01-04T14:17:32;17.70;99.90
14473;DHT22;7322;50.872;4.386;2023-01-04T14:20:00;17.70;99.90
14473;DHT22;7322;50.872;4.386;2023-01-04T14:22:40;17.60;99.90
14473;DHT22;7322;50.872;4.386;2023-01-04T14:25:33;17.70;99.90
14473;DHT22;7322;50.872;4.386;2023-01-04T14:28:18;17.70;99.90
14473;DHT22;7322;50.872;4.386;2023-01-04T14:30:49;17.70;99.90
14473;DHT22;7322;50.872;4.386;2023-01-04T14:33:18;17.70;99.90
14473;DHT22;7322;50.872;4.386;2023-01-04T14:36:01;17.60;99.90
14473;DHT22;7322;50.872;4.386;2023-01-04T14:38:28;17.70;99.90
14473;DHT22;7322;50.872;4.386;2023-01-04T14:40:55;17.60;99.90
14473;DHT22;7322;50.872;4.386;2023-01-04T14:43:32;17.60;99.90
14473;DHT22;7322;50.872;4.386;2023-01-04T14:46:02;17.60;99.90
14473;DHT22;7322;50.872;4.386;2023-01-04T14:48:30;17.60;99.90
14473;DHT22;7322;50.872;4.386;2023-01-04T14:50:58;17.60;99.90
14473;DHT22;7322;50.872;4.386;2023-01-04T14:53:25;17.60;99.90
14473;DHT22;7322;50.872;4.386;2023-01-04T14:55:52;17.60;99.90
14473;DHT22;7322;50.872;4.386;2023-01-04T14:58:19;17.60;99.90
14473;DHT22;7322;50.872;4.386;2023-01-04T15:00:46;17.60;99.90
14473;DHT22;7322;50.872;4.386;2023-01-04T15:03:15;17.60;99.90
14473;DHT22;7322;50.872;4.386;2023-01-04T15:05:45;17.60;99.90
14473;DHT22;7322;50.872;4.386;2023-01-04T15:08:15;17.60;99.90
14473;DHT22;7322;50.872;4.386;2023-01-04T15:10:42;17.60;99.90
14473;DHT22;7322;50.872;4.386;2023-01-04T15:13:10;17.60;99.90
14473;DHT22;7322;50.872;4.386;2023-01-04T15:15:37;17.60;99.90
14473;DHT22;7322;50.872;4.386;2023-01-04T15:18:05;17.50;99.90
14473;DHT22;7322;50.872;4.386;2023-01-04T15:20:38;17.50;99.90
14473;DHT22;7322;50.872;4.386;2023-01-04T15:23:05;17.50;99.90
14473;DHT22;7322;50.872;4.386;2023-01-04T15:25:33;17.50;99.90
14473;DHT22;7322;50.872;4.386;2023-01-04T15:28:00;17.50;99.90
14473;DHT22;7322;50.872;4.386;2023-01-04T15:30:39;17.50;99.90
14473;DHT22;7322;50.872;4.386;2023-01-04T15:33:07;17.50;99.90
14473;DHT22;7322;50.872;4.386;2023-01-04T15:35:35;17.40;99.90
14473;DHT22;7322;50.872;4.386;2023-01-04T15:38:03;17.40;99.90
14473;DHT22;7322;50.872;4.386;2023-01-04T15:40:30;17.40;99.90
14473;DHT22;7322;50.872;4.386;2023-01-04T15:42:58;17.40;99.90
14473;DHT22;7322;50.872;4.386;2023-01-04T15:45:24;17.40;99.90
14473;DHT22;7322;50.872;4.386;2023-01-04T15:47:51;17.40;99.90
14473;DHT22;7322;50.872;4.386;2023-01-04T15:50:23;17.30;99.90
14473;DHT22;7322;50.872;4.386;2023-01-04T15:52:53;17.30;99.90
14473;DHT22;7322;50.872;4.386;2023-01-04T15:55:20;17.30;99.90
14473;DHT22;7322;50.872;4.386;2023-01-04T15:57:54;17.30;99.90
14473;DHT22;7322;50.872;4.386;2023-01-04T16:00:21;17.30;99.90
14473;DHT22;7322;50.872;4.386;2023-01-04T16:02:48;17.30;99.90
14473;DHT22;7322;50.872;4.386;2023-01-04T16:05:16;17.30;99.90
14473;DHT22;7322;50.872;4.386;2023-01-04T16:07:45;17.30;99.90
14473;DHT22;7322;50.872;4.386;2023-01-04T16:10:15;17.30;99.90
14473;DHT22;7322;50.872;4.386;2023-01-04T16:12:42;17.30;99.90
14473;DHT22;7322;50.872;4.386;2023-01-04T16:15:11;17.40;99.90
14473;DHT22;7322;50.872;4.386;2023-01-04T16:17:39;17.30;99.90
14473;DHT22;7322;50.872;4.386;2023-01-04T16:20:07;17.30;99.90
14473;DHT22;7322;50.872;4.386;2023-01-04T16:22:36;17.30;99.90
14473;DHT22;7322;50.872;4.386;2023-01-04T16:25:03;17.30;99.90